createdAt,value
2019-04-06T00:02:34.066Z,99548.27
2019-04-06T00:05:03.130Z,99548.55
2019-04-06T00:07:32.079Z,99545.09
2019-04-06T00:10:01.051Z,99542.50
2019-04-06T00:12:29.716Z,99541.23
2019-04-06T00:14:58.381Z,99542.83
2019-04-06T00:17:27.066Z,99536.50
2019-04-06T00:19:55.849Z,99539.33
2019-04-06T00:22:26.454Z,99534.08
2019-04-06T00:24:55.218Z,99536.97
2019-04-06T00:27:24.710Z,99532.89
2019-04-06T00:29:54.142Z,99541.56
2019-04-06T00:32:28.060Z,99545.30
2019-04-06T00:34:57.925Z,99542.58
2019-04-06T00:37:27.804Z,99540.65
2019-04-06T00:39:57.007Z,99540.59
2019-04-06T00:42:26.305Z,99538.50
2019-04-06T00:44:55.327Z,99536.94
2019-04-06T00:47:24.772Z,99534.40
2019-04-06T00:49:54.154Z,99533.13
2019-04-06T00:52:23.219Z,99535.70
2019-04-06T00:54:52.298Z,99540.03
2019-04-06T00:57:23.695Z,99537.33
2019-04-06T00:59:52.802Z,99543.77
2019-04-06T01:02:21.862Z,99543.77
2019-04-06T01:04:50.946Z,99545.09
2019-04-06T01:07:19.711Z,99540.47
2019-04-06T01:09:48.478Z,99536.55
2019-04-06T01:12:17.492Z,99541.48
2019-04-06T01:14:46.470Z,99541.30
2019-04-06T01:17:15.432Z,99538.77
2019-04-06T01:19:44.545Z,99539.59
2019-04-06T01:22:13.229Z,99542.06
2019-04-06T01:24:41.888Z,99543.86
2019-04-06T01:27:10.619Z,99545.13
2019-04-06T01:29:39.338Z,99542.89
2019-04-06T01:32:08.001Z,99544.89
2019-04-06T01:34:36.663Z,99536.61
2019-04-06T01:37:05.432Z,99541.50
2019-04-06T01:39:34.108Z,99541.86
2019-04-06T01:42:02.777Z,99532.75
2019-04-06T01:44:31.492Z,99528.30
2019-04-06T01:47:00.145Z,99527.34
2019-04-06T01:49:28.840Z,99531.91
2019-04-06T01:51:57.530Z,99525.53
2019-04-06T01:54:26.189Z,99532.46
2019-04-06T01:56:54.850Z,99533.02
2019-04-06T01:59:23.540Z,99536.32
2019-04-06T02:01:58.956Z,99533.14
2019-04-06T02:04:27.652Z,99535.70
2019-04-06T02:06:56.303Z,99532.75
2019-04-06T02:09:24.978Z,99534.02
2019-04-06T02:11:53.661Z,99532.75
2019-04-06T02:14:22.318Z,99524.59
2019-04-06T02:16:51.090Z,99526.69
2019-04-06T02:19:19.902Z,99526.83
2019-04-06T02:21:48.569Z,99529.31
2019-04-06T02:24:17.241Z,99518.23
2019-04-06T02:26:45.912Z,99527.63
2019-04-06T02:29:14.610Z,99522.51
2019-04-06T02:32:10.602Z,99524.62
2019-04-06T02:35:06.339Z,99516.97
2019-04-06T02:37:57.093Z,99523.59
2019-04-06T02:40:39.899Z,99524.19
2019-04-06T02:43:17.897Z,99523.83
2019-04-06T02:45:46.580Z,99528.42
2019-04-06T02:48:15.247Z,99522.70
2019-04-06T02:50:43.913Z,99522.77
2019-04-06T02:53:12.583Z,99524.25
2019-04-06T02:55:41.244Z,99518.23
2019-04-06T02:58:10.171Z,99521.08
2019-04-06T03:00:38.913Z,99509.03
2019-04-06T03:03:07.571Z,99516.31
2019-04-06T03:05:36.332Z,99518.11
2019-04-06T03:08:05.001Z,99522.58
2019-04-06T03:10:33.740Z,99514.26
2019-04-06T03:13:02.835Z,99520.36
2019-04-06T03:15:32.417Z,99518.78
2019-04-06T03:18:01.093Z,99526.70
2019-04-06T03:20:29.819Z,99530.79
2019-04-06T03:22:59.178Z,99528.86
2019-04-06T03:25:28.289Z,99526.20
2019-04-06T03:27:58.050Z,99514.09
2019-04-06T03:30:27.493Z,99528.23
2019-04-06T03:32:57.989Z,99523.47
2019-04-06T03:35:26.700Z,99516.79
2019-04-06T03:37:56.434Z,99516.55
2019-04-06T03:40:25.740Z,99514.20
2019-04-06T03:42:55.039Z,99514.20
2019-04-06T03:45:23.794Z,99516.20
2019-04-06T03:47:52.400Z,99520.13
2019-04-06T03:50:21.223Z,99520.89
2019-04-06T03:52:49.841Z,99526.13
2019-04-06T03:55:18.497Z,99519.91
2019-04-06T03:57:47.166Z,99519.91
2019-04-06T04:00:16.318Z,99523.97
2019-04-06T04:02:44.950Z,99522.15
2019-04-06T04:05:13.674Z,99517.73
2019-04-06T04:07:42.638Z,99517.62
2019-04-06T04:10:17.446Z,99521.66
2019-04-06T04:12:46.127Z,99518.48
2019-04-06T04:15:14.960Z,99512.28
2019-04-06T04:17:43.771Z,99519.86
2019-04-06T04:20:12.535Z,99514.39
2019-04-06T04:22:41.203Z,99514.16
2019-04-06T04:25:10.255Z,99512.28
2019-04-06T04:27:41.394Z,99508.81
2019-04-06T04:30:10.148Z,99511.52
2019-04-06T04:32:38.835Z,99515.47
2019-04-06T04:35:07.643Z,99521.80
2019-04-06T04:37:37.454Z,99524.86
2019-04-06T04:40:06.321Z,99527.45
2019-04-06T04:42:35.017Z,99528.90
2019-04-06T04:45:03.774Z,99534.48
2019-04-06T04:47:32.466Z,99533.23
2019-04-06T04:50:01.136Z,99542.51
2019-04-06T04:52:30.495Z,99542.09
2019-04-06T04:54:59.489Z,99541.74
2019-04-06T04:57:39.685Z,99554.08
2019-04-06T04:59:59.685Z,99546.98
2019-04-06T05:02:28.374Z,99545.98
2019-04-06T05:04:57.377Z,99545.39
2019-04-06T05:07:26.511Z,99550.28
2019-04-06T05:09:55.545Z,99549.28
2019-04-06T05:12:24.598Z,99557.95
2019-04-06T05:15:02.427Z,99553.20
2019-04-06T05:17:31.950Z,99550.78
2019-04-06T05:20:01.464Z,99556.56
2019-04-06T05:22:32.274Z,99557.65
2019-04-06T05:25:01.505Z,99549.28
2019-04-06T05:27:30.515Z,99555.55
2019-04-06T05:29:59.151Z,99558.87
2019-04-06T05:32:28.556Z,99553.88
2019-04-06T05:34:58.442Z,99558.45
2019-04-06T05:37:27.801Z,99558.68
2019-04-06T05:39:57.226Z,99555.44
2019-04-06T05:42:26.233Z,99555.08
2019-04-06T05:44:55.013Z,99558.20
2019-04-06T05:47:23.911Z,99556.84
2019-04-06T05:49:53.013Z,99564.66
2019-04-06T05:52:22.615Z,99562.89
2019-04-06T05:54:51.812Z,99559.46
2019-04-06T05:57:20.793Z,99562.22
2019-04-06T05:59:49.510Z,99563.49
2019-04-06T06:02:21.308Z,99571.72
2019-04-06T06:04:50.706Z,99568.36
2019-04-06T06:07:19.727Z,99578.45
2019-04-06T06:09:48.722Z,99578.61
2019-04-06T06:12:18.061Z,99581.10
2019-04-06T06:14:47.767Z,99579.72
2019-04-06T06:17:16.725Z,99576.09
2019-04-06T06:19:45.459Z,99584.29
2019-04-06T06:22:14.506Z,99580.39
2019-04-06T06:24:43.940Z,99578.16
2019-04-06T06:27:13.524Z,99579.98
2019-04-06T06:29:42.239Z,99579.77
2019-04-06T06:32:10.932Z,99577.77
2019-04-06T06:34:39.959Z,99572.97
2019-04-06T06:37:08.637Z,99575.22
2019-04-06T06:39:37.370Z,99581.77
2019-04-06T06:42:06.191Z,99569.92
2019-04-06T06:44:35.580Z,99578.35
2019-04-06T06:47:04.347Z,99572.03
2019-04-06T06:49:33.408Z,99567.54
2019-04-06T06:52:02.105Z,99565.03
2019-04-06T06:54:30.922Z,99568.30
2019-04-06T06:56:59.520Z,99567.03
2019-04-06T06:59:30.309Z,99569.16
2019-04-06T07:01:59.207Z,99557.04
2019-04-06T07:04:27.944Z,99559.18
2019-04-06T07:06:56.953Z,99563.02
2019-04-06T07:09:25.645Z,99561.69
2019-04-06T07:11:54.871Z,99567.41
2019-04-06T07:14:23.979Z,99552.94
2019-04-06T07:16:52.665Z,99563.64
2019-04-06T07:19:22.060Z,99559.94
2019-04-06T07:21:51.598Z,99556.73
2019-04-06T07:24:21.539Z,99557.88
2019-04-06T07:26:51.003Z,99562.45
2019-04-06T07:29:20.047Z,99565.45
2019-04-06T07:31:49.113Z,99571.28
2019-04-06T07:34:17.797Z,99563.06
2019-04-06T07:36:46.760Z,99568.15
2019-04-06T07:39:16.197Z,99565.74
2019-04-06T07:41:45.586Z,99568.35
2019-04-06T07:44:14.447Z,99560.60
2019-04-06T07:46:43.640Z,99567.00
2019-04-06T07:49:12.799Z,99562.78
2019-04-06T07:51:41.759Z,99561.69
2019-04-06T07:54:37.703Z,99563.59
2019-04-06T07:57:06.391Z,99561.98
2019-04-06T07:59:35.080Z,99560.37
2019-04-06T08:02:04.090Z,99554.75
2019-04-06T08:04:34.727Z,99548.02
2019-04-06T08:07:03.571Z,99547.70
2019-04-06T08:09:32.262Z,99544.65
2019-04-06T08:12:00.932Z,99553.35
2019-04-06T08:14:29.960Z,99556.41
2019-04-06T08:16:59.291Z,99561.41
2019-04-06T08:19:28.028Z,99556.52
2019-04-06T08:21:56.838Z,99554.31
2019-04-06T08:24:25.471Z,99551.77
2019-04-06T08:26:54.140Z,99554.39
2019-04-06T08:29:22.804Z,99562.47
2019-04-06T08:31:52.777Z,99555.22
2019-04-06T08:34:21.540Z,99555.00
2019-04-06T08:36:50.216Z,99554.28
2019-04-06T08:39:19.058Z,99544.26
2019-04-06T08:41:47.736Z,99548.00
2019-04-06T08:44:16.410Z,99555.48
2019-04-06T08:46:46.007Z,99549.77
2019-04-06T08:49:15.031Z,99550.34
2019-04-06T08:51:44.099Z,99553.89
2019-04-06T08:54:14.129Z,99556.37
2019-04-06T08:56:42.783Z,99554.08
2019-04-06T08:59:13.501Z,99548.73
2019-04-06T09:01:42.733Z,99557.73
2019-04-06T09:04:11.839Z,99552.19
2019-04-06T09:06:40.879Z,99553.95
2019-04-06T09:09:10.214Z,99554.58
2019-04-06T09:11:38.903Z,99554.13
2019-04-06T09:14:08.295Z,99554.27
2019-04-06T09:16:36.955Z,99549.17
2019-04-06T09:19:06.727Z,99543.42
2019-04-06T09:21:35.431Z,99544.55
2019-04-06T09:24:04.180Z,99542.52
2019-04-06T09:26:33.171Z,99539.42
2019-04-06T09:29:01.859Z,99544.31
2019-04-06T09:31:30.576Z,99539.52
2019-04-06T09:33:59.588Z,99539.14
2019-04-06T09:36:28.564Z,99542.98
2019-04-06T09:38:57.476Z,99542.16
2019-04-06T09:41:26.647Z,99535.13
2019-04-06T09:43:55.417Z,99528.66
2019-04-06T09:46:33.157Z,99527.72
2019-04-06T09:49:08.215Z,99523.17
2019-04-06T09:51:50.728Z,99512.44
2019-04-06T09:54:30.755Z,99517.25
2019-04-06T09:57:10.418Z,99518.56
2019-04-06T09:59:57.238Z,99523.27
2019-04-06T10:02:34.726Z,99525.48
2019-04-06T10:05:17.311Z,99518.90
2019-04-06T10:08:12.860Z,99516.92
2019-04-06T10:10:59.481Z,99510.36
2019-04-06T10:13:46.519Z,99515.05
2019-04-06T10:16:33.930Z,99508.17
2019-04-06T10:19:20.956Z,99497.36
2019-04-06T10:21:59.754Z,99501.05
2019-04-06T10:24:44.998Z,99496.11
2019-04-06T10:27:22.961Z,99495.73
2019-04-06T10:30:07.889Z,99493.25
2019-04-06T10:32:54.223Z,99498.08
2019-04-06T10:35:41.687Z,99485.41
2019-04-06T10:38:18.833Z,99483.34
2019-04-06T10:41:00.694Z,99481.36
2019-04-06T10:43:42.469Z,99481.58
2019-04-06T10:46:19.198Z,99475.96
2019-04-06T10:49:17.411Z,99479.88
2019-04-06T10:52:09.913Z,99470.58
2019-04-06T10:55:03.857Z,99470.20
2019-04-06T10:57:51.658Z,99474.14
2019-04-06T11:00:30.228Z,99467.02
2019-04-06T11:03:04.568Z,99466.84
2019-04-06T11:05:43.075Z,99469.21
2019-04-06T11:08:22.212Z,99466.58
2019-04-06T11:11:11.360Z,99462.88
2019-04-06T11:14:02.169Z,99458.27
2019-04-06T11:16:51.096Z,99458.79
2019-04-06T11:19:32.629Z,99457.22
2019-04-06T11:22:11.897Z,99452.03
2019-04-06T11:24:54.744Z,99453.16
2019-04-06T11:27:41.079Z,99447.13
2019-04-06T11:30:20.391Z,99444.27
2019-04-06T11:33:07.500Z,99440.94
2019-04-06T11:35:54.942Z,99436.98
2019-04-06T11:38:43.610Z,99438.19
2019-04-06T11:41:31.419Z,99436.27
2019-04-06T11:44:16.612Z,99430.02
2019-04-06T11:47:02.941Z,99429.30
2019-04-06T11:49:49.907Z,99421.52
2019-04-06T11:52:28.340Z,99421.33
2019-04-06T11:55:04.467Z,99413.65
2019-04-06T11:58:04.598Z,99421.84
2019-04-06T12:01:10.818Z,99423.94
2019-04-06T12:03:57.987Z,99423.56
2019-04-06T12:07:01.791Z,99415.58
2019-04-06T12:09:42.667Z,99415.41
2019-04-06T12:12:30.497Z,99406.00
2019-04-06T12:15:17.258Z,99401.45
2019-04-06T12:18:20.410Z,99410.16
2019-04-06T12:21:01.328Z,99408.66
2019-04-06T12:23:52.669Z,99405.28
2019-04-06T12:26:29.658Z,99400.25
2019-04-06T12:29:08.544Z,99401.98
2019-04-06T12:31:56.915Z,99398.44
2019-04-06T12:34:34.797Z,99389.73
2019-04-06T12:37:15.584Z,99382.16
2019-04-06T12:40:08.116Z,99378.44
2019-04-06T12:42:54.959Z,99379.84
2019-04-06T12:45:41.594Z,99382.55
2019-04-06T12:48:27.952Z,99370.61
2019-04-06T12:51:08.703Z,99372.50
2019-04-06T12:53:59.508Z,99372.23
2019-04-06T12:56:39.942Z,99370.81
2019-04-06T12:59:40.472Z,99363.78
2019-04-06T13:02:27.549Z,99360.20
2019-04-06T13:05:15.584Z,99357.21
2019-04-06T13:08:06.108Z,99357.12
2019-04-06T13:11:08.933Z,99347.36
2019-04-06T13:14:03.138Z,99348.98
2019-04-06T13:16:50.934Z,99342.59
2019-04-06T13:19:24.674Z,99341.09
2019-04-06T13:22:00.230Z,99343.76
2019-04-06T13:24:42.037Z,99337.13
2019-04-06T13:27:24.868Z,99334.17
2019-04-06T13:30:05.975Z,99334.31
2019-04-06T13:32:48.866Z,99328.71
2019-04-06T13:35:34.599Z,99334.16
2019-04-06T13:38:21.177Z,99329.27
2019-04-06T13:41:16.344Z,99328.48
2019-04-06T13:44:22.036Z,99333.20
2019-04-06T13:50:24.284Z,99334.00
2019-04-06T13:53:21.374Z,99322.58
2019-04-06T13:56:06.581Z,99322.78
2019-04-06T13:58:54.172Z,99315.08
2019-04-06T14:01:38.833Z,99325.80
2019-04-06T14:04:15.485Z,99323.50
2019-04-06T14:07:02.800Z,99320.78
2019-04-06T14:09:50.192Z,99317.13
2019-04-06T14:12:37.038Z,99322.44
2019-04-06T14:15:41.104Z,99328.63
2019-04-06T14:18:35.408Z,99320.13
2019-04-06T14:21:16.806Z,99315.55
2019-04-06T14:24:07.612Z,99316.80
2019-04-06T14:26:51.460Z,99316.06
2019-04-06T14:29:31.841Z,99311.71
2019-04-06T14:32:18.858Z,99309.98
2019-04-06T14:35:01.838Z,99311.03
2019-04-06T14:37:48.506Z,99313.78
2019-04-06T14:40:29.163Z,99317.65
2019-04-06T14:43:15.931Z,99310.83
2019-04-06T14:45:51.231Z,99305.89
2019-04-06T14:48:29.440Z,99312.12
2019-04-06T14:51:12.212Z,99316.16
2019-04-06T14:53:48.087Z,99311.91
2019-04-06T14:56:32.337Z,99315.09
2019-04-06T14:59:09.068Z,99315.03
2019-04-06T15:01:58.674Z,99319.02
2019-04-06T15:04:42.318Z,99317.76
2019-04-06T15:07:42.094Z,99319.01
2019-04-06T15:10:37.387Z,99311.02
2019-04-06T15:13:28.767Z,99315.23
2019-04-06T15:16:34.663Z,99319.27
2019-04-06T15:19:11.948Z,99320.06
2019-04-06T15:22:00.798Z,99320.92
2019-04-06T15:24:44.099Z,99317.41
2019-04-06T15:27:41.913Z,99313.47
2019-04-06T15:30:36.410Z,99312.38
2019-04-06T15:33:16.570Z,99321.70
2019-04-06T15:36:01.854Z,99321.15
2019-04-06T15:39:01.411Z,99326.45
2019-04-06T15:41:56.292Z,99314.59
2019-04-06T15:44:37.311Z,99328.52
2019-04-06T15:47:22.607Z,99328.47
2019-04-06T15:50:09.719Z,99316.63
2019-04-06T15:52:50.703Z,99315.84
2019-04-06T15:55:38.428Z,99314.13
2019-04-06T15:58:14.683Z,99310.30
2019-04-06T16:01:04.349Z,99310.48
2019-04-06T16:03:48.615Z,99308.36
2019-04-06T16:06:25.828Z,99308.19
2019-04-06T16:09:12.418Z,99301.41
2019-04-06T16:11:54.614Z,99307.23
2019-04-06T16:14:33.847Z,99305.14
2019-04-06T16:17:27.082Z,99305.67
2019-04-06T16:20:05.616Z,99308.23
2019-04-06T16:23:00.818Z,99305.24
2019-04-06T16:25:51.255Z,99304.12
2019-04-06T16:28:30.485Z,99306.00
2019-04-06T16:31:09.390Z,99304.20
2019-04-06T16:34:09.485Z,99301.98
2019-04-06T16:36:49.162Z,99296.97
2019-04-06T16:39:39.928Z,99305.86
2019-04-06T16:42:30.694Z,99307.70
2019-04-06T16:45:17.339Z,99286.78
2019-04-06T16:48:06.415Z,99296.19
2019-04-06T16:50:43.433Z,99304.66
2019-04-06T16:53:36.751Z,99299.59
2019-04-06T16:56:26.956Z,99294.41
2019-04-06T16:59:08.062Z,99298.66
2019-04-06T17:01:59.503Z,99293.36
2019-04-06T17:04:53.215Z,99294.63
2019-04-06T17:07:31.243Z,99298.61
2019-04-06T17:10:10.703Z,99298.07
2019-04-06T17:13:10.854Z,99294.91
2019-04-06T17:16:07.569Z,99302.83
2019-04-06T17:18:51.773Z,99300.39
2019-04-06T17:21:52.203Z,99295.27
2019-04-06T17:24:36.252Z,99300.39
2019-04-06T17:27:20.073Z,99305.17
2019-04-06T17:29:58.865Z,99302.75
2019-04-06T17:32:35.928Z,99300.84
2019-04-06T17:35:13.017Z,99305.95
2019-04-06T17:37:51.584Z,99312.59
2019-04-06T17:40:32.454Z,99306.95
2019-04-06T17:43:09.578Z,99305.61
2019-04-06T17:45:54.287Z,99313.78
2019-04-06T17:48:28.727Z,99319.90
2019-04-06T17:51:31.799Z,99328.52
2019-04-06T17:54:16.312Z,99326.25
2019-04-06T17:56:58.046Z,99325.67
2019-04-06T17:59:52.873Z,99330.77
2019-04-06T18:02:49.649Z,99332.30
2019-04-06T18:05:49.285Z,99338.60
2019-04-06T18:08:34.980Z,99338.97
2019-04-06T18:11:26.275Z,99330.96
2019-04-06T18:13:56.336Z,99335.24
2019-04-06T18:16:30.048Z,99343.53
2019-04-06T18:18:58.976Z,99335.23
2019-04-06T18:21:28.109Z,99337.92
2019-04-06T18:23:57.595Z,99340.86
2019-04-06T18:26:27.089Z,99337.90
2019-04-06T18:28:56.404Z,99343.93
2019-04-06T18:31:33.889Z,99343.28
2019-04-06T18:34:03.729Z,99350.88
2019-04-06T18:36:57.841Z,99353.12
2019-04-06T18:39:27.804Z,99355.74
2019-04-06T18:41:57.281Z,99354.63
2019-04-06T18:44:29.012Z,99356.39
2019-04-06T18:46:58.426Z,99361.64
2019-04-06T18:49:28.327Z,99353.19
2019-04-06T18:51:58.354Z,99358.28
2019-04-06T18:54:27.071Z,99363.03
2019-04-06T18:56:56.024Z,99361.95
2019-04-06T18:59:24.863Z,99366.20
2019-04-06T19:01:54.078Z,99358.42
2019-04-06T19:04:22.818Z,99360.25
2019-04-06T19:06:51.484Z,99361.19
2019-04-06T19:09:23.796Z,99362.05
2019-04-06T19:11:55.107Z,99366.02
2019-04-06T19:14:21.435Z,99363.27
2019-04-06T19:16:50.308Z,99365.64
2019-04-06T19:19:19.353Z,99362.03
2019-04-06T19:21:48.039Z,99361.49
2019-04-06T19:24:16.697Z,99360.13
2019-04-06T19:26:45.372Z,99360.06
2019-04-06T19:29:14.064Z,99357.62
2019-04-06T19:31:43.264Z,99361.59
2019-04-06T19:34:12.468Z,99363.03
2019-04-06T19:36:41.310Z,99361.09
2019-04-06T19:39:13.714Z,99367.23
2019-04-06T19:41:42.825Z,99361.98
2019-04-06T19:44:11.973Z,99360.73
2019-04-06T19:46:40.731Z,99363.59
2019-04-06T19:49:09.384Z,99362.30
2019-04-06T19:51:38.529Z,99366.65
2019-04-06T19:54:07.295Z,99361.77
2019-04-06T19:56:36.464Z,99364.59
2019-04-06T19:59:05.254Z,99359.16
2019-04-06T20:01:34.676Z,99360.32
2019-04-06T20:04:03.610Z,99361.69
2019-04-06T20:06:32.295Z,99362.64
2019-04-06T20:09:00.959Z,99359.29
2019-04-06T20:11:29.901Z,99357.62
2019-04-06T20:13:58.851Z,99361.31
2019-04-06T20:16:27.603Z,99359.11
2019-04-06T20:18:56.525Z,99359.59
2019-04-06T20:21:26.337Z,99357.98
2019-04-06T20:23:55.046Z,99362.02
2019-04-06T20:26:23.935Z,99356.67
2019-04-06T20:28:52.630Z,99357.91
2019-04-06T20:31:21.385Z,99353.63
2019-04-06T20:33:51.856Z,99357.00
2019-04-06T20:36:20.483Z,99356.32
2019-04-06T20:38:49.222Z,99351.45
2019-04-06T20:41:17.968Z,99353.13
2019-04-06T20:43:46.619Z,99356.14
2019-04-06T20:46:15.339Z,99358.14
2019-04-06T20:48:44.002Z,99352.77
2019-04-06T20:51:12.655Z,99354.47
2019-04-06T20:53:46.302Z,99355.79
2019-04-06T20:56:15.071Z,99361.75
2019-04-06T20:58:44.073Z,99364.28
2019-04-06T21:01:13.027Z,99367.00
2019-04-06T21:03:45.334Z,99363.12
2019-04-06T21:06:14.024Z,99363.80
2019-04-06T21:08:42.718Z,99366.94
2019-04-06T21:11:11.709Z,99366.76
2019-04-06T21:13:40.800Z,99364.09
2019-04-06T21:16:09.648Z,99360.05
2019-04-06T21:18:38.962Z,99371.18
2019-04-06T21:21:07.613Z,99363.94
2019-04-06T21:23:36.641Z,99367.98
2019-04-06T21:26:05.396Z,99366.83
2019-04-06T21:28:34.067Z,99370.14
2019-04-06T21:31:02.729Z,99368.76
2019-04-06T21:33:31.741Z,99371.53
2019-04-06T21:36:00.562Z,99372.46
2019-04-06T21:38:29.599Z,99374.38
2019-04-06T21:40:58.361Z,99368.30
2019-04-06T21:43:27.015Z,99372.09
2019-04-06T21:45:55.670Z,99372.82
2019-04-06T21:48:24.885Z,99372.49
2019-04-06T21:50:53.685Z,99371.40
2019-04-06T21:53:22.331Z,99372.42
2019-04-06T21:56:00.932Z,99377.88
2019-04-06T21:58:22.013Z,99372.89
2019-04-06T22:00:53.704Z,99373.55
2019-04-06T22:03:22.440Z,99377.97
2019-04-06T22:05:51.177Z,99377.97
2019-04-06T22:08:20.432Z,99379.06
2019-04-06T22:10:49.220Z,99376.16
2019-04-06T22:13:18.403Z,99375.59
2019-04-06T22:15:47.347Z,99380.06
2019-04-06T22:18:15.918Z,99372.12
2019-04-06T22:20:44.588Z,99370.03
2019-04-06T22:23:13.261Z,99375.48
2019-04-06T22:25:41.934Z,99369.72
2019-04-06T22:28:10.937Z,99374.73
2019-04-06T22:30:40.661Z,99374.34
2019-04-06T22:33:09.367Z,99375.52
2019-04-06T22:35:38.398Z,99379.62
2019-04-06T22:38:08.122Z,99382.26
2019-04-06T22:40:40.602Z,99382.63
2019-04-06T22:43:09.460Z,99378.16
2019-04-06T22:45:38.113Z,99377.66
2019-04-06T22:48:06.945Z,99377.06
2019-04-06T22:50:36.013Z,99372.30
2019-04-06T22:53:05.244Z,99373.41
2019-04-06T22:55:34.584Z,99369.11
2019-04-06T22:58:04.892Z,99370.53
2019-04-06T23:00:36.268Z,99365.82
2019-04-06T23:03:17.454Z,99365.89
2019-04-06T23:05:49.137Z,99371.06
2019-04-06T23:08:17.796Z,99367.63
2019-04-06T23:10:46.631Z,99370.07
2019-04-06T23:13:15.304Z,99372.41
2019-04-06T23:15:44.029Z,99367.64
2019-04-06T23:18:12.653Z,99366.72
2019-04-06T23:20:41.483Z,99376.09
2019-04-06T23:23:10.309Z,99372.27
2019-04-06T23:25:38.958Z,99375.50
2019-04-06T23:28:07.620Z,99369.06
2019-04-06T23:30:36.308Z,99377.13
2019-04-06T23:33:05.035Z,99381.68
2019-04-06T23:35:33.693Z,99379.89
2019-04-06T23:38:02.911Z,99380.55
2019-04-06T23:40:31.635Z,99380.19
2019-04-06T23:43:00.320Z,99376.14
2019-04-06T23:45:29.007Z,99375.70
2019-04-06T23:47:57.662Z,99382.14
2019-04-06T23:50:26.322Z,99380.88
2019-04-06T23:52:54.988Z,99378.16
2019-04-06T23:55:23.665Z,99382.91
2019-04-06T23:57:52.387Z,99377.33
